Time;durP1;ratioP1;P1;durP2;ratioP2;P2;SDS_P1;SDS_P2;PMS_P1;PMS_P2;Temp;Humidity;BMP_temperature;BMP_pressure;BME280_temperature;BME280_humidity;BME280_pressure;Samples;Min_cycle;Max_cycle;Signal;HPM_P1;HPM_P2
2022/09/02 00:00:52;;;;;;;2.20;1.50;;;17.40;99.90;;;;;;5107085;28;20664;-69
2022/09/02 00:03:20;;;;;;;4.70;1.53;;;17.40;99.90;;;;;;5107998;28;20285;-70
2022/09/02 00:05:47;;;;;;;3.80;1.43;;;17.30;99.90;;;;;;5107206;28;20237;-69
2022/09/02 00:08:14;;;;;;;2.87;1.53;;;17.30;99.90;;;;;;5107513;28;20812;-70
2022/09/02 00:10:42;;;;;;;1.40;1.30;;;17.30;99.90;;;;;;5089525;28;20198;-69
2022/09/02 00:13:11;;;;;;;1.73;1.47;;;17.20;99.90;;;;;;5087502;28;20203;-68
2022/09/02 00:15:39;;;;;;;2.93;1.30;;;17.20;99.90;;;;;;5089532;28;20663;-69
2022/09/02 00:18:07;;;;;;;1.70;1.60;;;17.20;99.90;;;;;;5091001;28;20203;-69
2022/09/02 00:20:34;;;;;;;1.27;1.23;;;17.20;99.90;;;;;;5095569;28;20289;-68
2022/09/02 00:23:01;;;;;;;1.57;1.30;;;17.20;99.90;;;;;;5105631;28;20210;-68
2022/09/02 00:25:28;;;;;;;1.57;1.40;;;17.20;99.90;;;;;;5090809;28;20326;-68
2022/09/02 00:27:55;;;;;;;1.93;1.47;;;17.20;99.90;;;;;;5090597;28;20209;-68
2022/09/02 00:30:21;;;;;;;1.20;1.10;;;17.20;99.90;;;;;;5106426;28;20202;-68
2022/09/02 00:32:49;;;;;;;2.43;1.33;;;17.20;99.90;;;;;;5101971;28;20202;-68
2022/09/02 00:35:16;;;;;;;3.17;1.43;;;17.20;99.90;;;;;;5090676;28;20251;-69
2022/09/02 00:37:43;;;;;;;1.73;1.33;;;17.10;99.90;;;;;;5107043;28;20202;-68
2022/09/02 00:40:11;;;;;;;1.50;1.40;;;17.10;99.90;;;;;;5093252;28;20199;-68
2022/09/02 00:42:39;;;;;;;1.57;1.47;;;17.10;99.90;;;;;;5090721;28;20203;-68
2022/09/02 00:45:07;;;;;;;1.23;1.23;;;17.10;99.90;;;;;;5090415;28;20289;-68
2022/09/02 00:47:35;;;;;;;1.30;1.20;;;17.10;99.90;;;;;;5098220;28;20198;-68
2022/09/02 00:50:06;;;;;;;1.33;1.33;;;17.10;99.90;;;;;;5090174;28;20738;-69
2022/09/02 00:52:37;;;;;;;1.40;1.30;;;17.00;99.90;;;;;;5090295;28;20608;-68
2022/09/02 00:55:10;;;;;;;1.47;1.37;;;17.00;99.90;;;;;;5095628;28;20203;-68
2022/09/02 00:57:40;;;;;;;1.30;1.20;;;17.00;99.90;;;;;;5090337;28;20195;-68
2022/09/02 01:00:11;;;;;;;1.40;1.30;;;16.90;99.90;;;;;;5089754;28;20739;-68
2022/09/02 01:02:41;;;;;;;1.97;1.50;;;16.90;99.90;;;;;;5090099;28;20195;-69
2022/09/02 01:05:13;;;;;;;1.40;1.30;;;16.90;99.90;;;;;;5090009;28;20223;-68
2022/09/02 01:07:40;;;;;;;2.00;1.30;;;16.90;99.90;;;;;;5090397;28;20194;-68
2022/09/02 01:10:13;;;;;;;1.97;1.60;;;16.90;99.90;;;;;;5089776;28;20302;-68
2022/09/02 01:12:40;;;;;;;1.37;1.27;;;16.90;99.90;;;;;;5089749;28;20292;-68
2022/09/02 01:15:09;;;;;;;1.63;1.50;;;16.90;99.90;;;;;;5089331;28;20221;-68
2022/09/02 01:17:38;;;;;;;1.87;1.63;;;16.80;99.90;;;;;;5094289;28;20202;-68
2022/09/02 01:20:10;;;;;;;1.50;1.40;;;16.80;99.90;;;;;;5103912;28;20230;-69
2022/09/02 01:22:40;;;;;;;1.60;1.40;;;16.90;99.90;;;;;;5109922;27;20286;-68
2022/09/02 01:25:11;;;;;;;1.80;1.33;;;16.90;99.90;;;;;;5108069;28;20194;-68
2022/09/02 01:27:38;;;;;;;1.53;1.33;;;16.90;99.90;;;;;;5109509;28;20194;-68
2022/09/02 01:30:07;;;;;;;2.63;1.57;;;16.90;99.90;;;;;;5109437;27;20664;-68
2022/09/02 01:32:34;;;;;;;1.40;1.30;;;16.90;99.90;;;;;;5108579;28;20198;-68
2022/09/02 01:35:01;;;;;;;1.20;1.20;;;16.90;99.90;;;;;;5109529;27;20206;-68
2022/09/02 01:37:28;;;;;;;1.50;1.40;;;16.90;99.90;;;;;;5109869;27;20233;-68
2022/09/02 01:39:56;;;;;;;1.37;1.30;;;16.90;99.90;;;;;;5093816;28;20661;-70
2022/09/02 01:42:23;;;;;;;2.23;1.53;;;16.90;99.90;;;;;;5090247;28;20259;-70
2022/09/02 01:44:51;;;;;;;1.93;1.63;;;16.90;99.90;;;;;;5109148;28;20206;-70
2022/09/02 01:47:21;;;;;;;1.50;1.40;;;16.90;99.90;;;;;;5109484;28;20316;-70
2022/09/02 01:49:48;;;;;;;1.07;1.07;;;16.80;99.90;;;;;;5109364;28;20546;-69
2022/09/02 01:52:16;;;;;;;1.73;1.40;;;16.80;99.90;;;;;;5109342;28;20240;-70
2022/09/02 01:54:43;;;;;;;1.30;1.20;;;16.90;99.90;;;;;;5105055;27;20226;-69
2022/09/02 01:57:12;;;;;;;1.47;1.37;;;16.90;99.90;;;;;;5106817;28;20643;-70
2022/09/02 01:59:39;;;;;;;1.40;1.30;;;16.90;99.90;;;;;;5109483;28;20217;-70
2022/09/02 02:02:07;;;;;;;1.40;1.30;;;16.90;99.90;;;;;;5109186;28;20294;-70
2022/09/02 02:04:33;;;;;;;2.40;1.17;;;16.90;99.90;;;;;;5109007;28;20603;-69
2022/09/02 02:07:00;;;;;;;2.57;1.10;;;16.90;99.90;;;;;;5098540;28;20205;-69
2022/09/02 02:09:27;;;;;;;1.50;1.40;;;16.90;99.90;;;;;;5088988;28;20206;-69
2022/09/02 02:11:54;;;;;;;1.37;1.27;;;16.80;99.90;;;;;;5088659;28;20241;-69
2022/09/02 02:14:22;;;;;;;2.40;1.30;;;16.80;99.90;;;;;;5097562;28;20206;-70
2022/09/02 02:16:50;;;;;;;1.17;1.17;;;16.80;99.90;;;;;;5099602;27;20233;-68
2022/09/02 02:19:17;;;;;;;2.57;1.37;;;16.80;99.90;;;;;;5088802;28;20213;-68
2022/09/02 02:21:44;;;;;;;1.20;1.10;;;16.70;99.90;;;;;;5094728;28;20285;-68
2022/09/02 02:24:10;;;;;;;1.50;1.40;;;16.70;99.90;;;;;;5108624;28;20210;-68
2022/09/02 02:26:37;;;;;;;1.43;1.40;;;16.70;99.90;;;;;;5108839;28;20213;-68
2022/09/02 02:29:04;;;;;;;1.60;1.50;;;16.70;99.90;;;;;;5108072;28;20584;-68
2022/09/02 02:31:32;;;;;;;1.90;1.50;;;16.70;99.90;;;;;;5104764;28;20206;-68
2022/09/02 02:34:00;;;;;;;2.33;1.60;;;16.60;99.90;;;;;;5106305;28;20205;-68
2022/09/02 02:36:27;;;;;;;1.60;1.50;;;16.60;99.90;;;;;;5106192;28;20234;-68
2022/09/02 02:38:55;;;;;;;1.30;1.20;;;16.60;99.90;;;;;;5101396;28;20238;-68
2022/09/02 02:41:21;;;;;;;1.27;1.27;;;16.60;99.90;;;;;;5091045;27;20206;-68
2022/09/02 02:43:48;;;;;;;1.63;1.40;;;16.50;99.90;;;;;;5085803;28;20214;-68
2022/09/02 02:46:16;;;;;;;1.20;1.20;;;16.50;99.90;;;;;;5085824;28;20226;-68
2022/09/02 02:48:45;;;;;;;1.73;1.50;;;16.50;99.90;;;;;;5086053;28;20211;-68
2022/09/02 02:51:12;;;;;;;2.13;1.50;;;16.50;99.90;;;;;;5085914;28;20310;-68
2022/09/02 02:53:38;;;;;;;1.73;1.30;;;16.50;99.90;;;;;;5094504;28;20293;-68
2022/09/02 02:56:06;;;;;;;1.20;1.20;;;16.40;99.90;;;;;;5098075;28;20312;-68
2022/09/02 02:58:34;;;;;;;1.60;1.50;;;16.40;99.90;;;;;;5106152;28;20206;-68
2022/09/02 03:01:01;;;;;;;1.70;1.60;;;16.40;99.90;;;;;;5106401;28;20206;-68
2022/09/02 03:03:28;;;;;;;1.47;1.30;;;16.30;99.90;;;;;;5106482;28;20205;-68
2022/09/02 03:05:56;;;;;;;3.70;1.10;;;16.30;99.90;;;;;;5092808;28;20232;-68
2022/09/02 03:08:25;;;;;;;2.40;1.30;;;16.30;99.90;;;;;;5107850;28;20293;-68
2022/09/02 03:10:55;;;;;;;1.30;1.20;;;16.30;99.90;;;;;;5094090;28;20639;-68
2022/09/02 03:13:22;;;;;;;3.70;1.50;;;16.30;99.90;;;;;;5085427;28;20206;-68
2022/09/02 03:15:49;;;;;;;2.63;1.57;;;16.30;99.90;;;;;;5085716;28;20207;-69
2022/09/02 03:18:18;;;;;;;2.67;1.23;;;16.30;99.90;;;;;;5094911;28;20668;-69
2022/09/02 03:20:45;;;;;;;1.57;1.07;;;16.30;99.90;;;;;;5096852;27;20207;-69
2022/09/02 03:23:13;;;;;;;1.30;1.23;;;16.20;99.90;;;;;;5087172;28;20248;-69
2022/09/02 03:25:42;;;;;;;1.30;1.20;;;16.20;99.90;;;;;;5107784;28;20211;-69
2022/09/02 03:28:09;;;;;;;1.07;1.07;;;16.30;99.90;;;;;;5107915;28;20205;-68
2022/09/02 03:30:37;;;;;;;4.90;1.10;;;16.20;99.90;;;;;;5107781;28;20209;-68
2022/09/02 03:33:05;;;;;;;1.20;1.20;;;16.20;99.90;;;;;;5107651;28;20210;-69
2022/09/02 03:35:33;;;;;;;1.83;1.43;;;16.10;99.90;;;;;;5108102;28;20245;-69
2022/09/02 03:38:01;;;;;;;1.30;1.27;;;16.10;99.90;;;;;;5088912;28;20231;-68
2022/09/02 03:40:29;;;;;;;1.23;1.20;;;16.10;99.90;;;;;;5087538;28;20237;-68
2022/09/02 03:42:56;;;;;;;1.40;1.30;;;16.10;99.90;;;;;;5087491;28;20293;-69
2022/09/02 03:45:24;;;;;;;1.10;1.10;;;16.10;99.90;;;;;;5087092;28;20216;-69
2022/09/02 03:47:52;;;;;;;2.57;1.40;;;16.00;99.90;;;;;;5087320;28;20222;-69
2022/09/02 03:50:21;;;;;;;1.37;1.30;;;16.00;99.90;;;;;;5089961;28;20259;-68
2022/09/02 03:52:49;;;;;;;1.80;1.30;;;16.00;99.90;;;;;;5091053;28;20245;-68
2022/09/02 03:55:17;;;;;;;1.60;1.50;;;16.00;99.90;;;;;;5109412;28;20206;-69
2022/09/02 03:57:45;;;;;;;2.60;1.53;;;16.00;99.90;;;;;;5111331;28;20230;-69
2022/09/02 04:00:15;;;;;;;2.60;1.40;;;15.90;99.90;;;;;;5111381;27;20208;-68
2022/09/02 04:02:43;;;;;;;1.63;1.47;;;15.90;99.90;;;;;;5111756;28;20230;-69
2022/09/02 04:05:11;;;;;;;2.63;1.30;;;15.90;99.90;;;;;;5111375;28;20687;-68
2022/09/02 04:07:38;;;;;;;2.00;1.50;;;15.90;99.90;;;;;;5110388;28;20821;-68
2022/09/02 04:10:07;;;;;;;1.53;1.43;;;15.80;99.90;;;;;;5090895;28;20211;-68
2022/09/02 04:12:34;;;;;;;1.87;1.57;;;15.70;99.90;;;;;;5090871;28;20210;-68
2022/09/02 04:15:02;;;;;;;2.67;1.63;;;15.70;99.90;;;;;;5104134;28;20198;-69
2022/09/02 04:17:29;;;;;;;1.97;1.50;;;15.70;99.90;;;;;;5110880;28;20233;-69
2022/09/02 04:19:56;;;;;;;2.17;1.30;;;15.70;99.90;;;;;;5108304;28;20681;-68
2022/09/02 04:22:23;;;;;;;3.20;1.40;;;15.70;99.90;;;;;;5090743;28;20202;-68
2022/09/02 04:24:49;;;;;;;1.80;1.70;;;15.60;99.90;;;;;;5105007;28;20664;-68
2022/09/02 04:27:16;;;;;;;2.03;1.83;;;15.60;99.90;;;;;;5111201;28;20216;-68
2022/09/02 04:29:43;;;;;;;2.90;1.30;;;15.60;99.90;;;;;;5110963;28;20213;-68
2022/09/02 04:32:11;;;;;;;2.03;1.40;;;15.60;99.90;;;;;;5109153;28;20210;-68
2022/09/02 04:34:38;;;;;;;1.77;1.40;;;15.50;99.90;;;;;;5090672;28;20214;-69
2022/09/02 04:37:08;;;;;;;3.23;1.53;;;15.50;99.90;;;;;;5090305;28;20607;-68
2022/09/02 04:39:34;;;;;;;1.60;1.50;;;15.50;99.90;;;;;;5090225;28;20206;-68
2022/09/02 04:42:01;;;;;;;2.90;1.40;;;15.60;99.90;;;;;;5090064;28;20568;-68
2022/09/02 04:44:28;;;;;;;1.80;1.70;;;15.50;99.90;;;;;;5090262;28;20211;-68
2022/09/02 04:46:55;;;;;;;1.93;1.73;;;15.50;99.90;;;;;;5090101;28;20207;-68
2022/09/02 04:49:23;;;;;;;2.23;1.50;;;15.60;99.90;;;;;;5090461;28;20207;-69
2022/09/02 04:51:52;;;;;;;2.07;1.47;;;15.50;99.90;;;;;;5089668;28;20276;-69
2022/09/02 04:54:19;;;;;;;3.10;1.80;;;15.60;99.90;;;;;;5100131;28;20206;-69
2022/09/02 04:56:46;;;;;;;4.77;1.90;;;15.50;99.90;;;;;;5110399;28;20241;-69
2022/09/02 04:59:13;;;;;;;3.53;1.87;;;15.50;99.90;;;;;;5110674;27;20198;-69
2022/09/02 05:01:40;;;;;;;4.00;2.13;;;15.60;99.90;;;;;;5108677;28;20198;-68
2022/09/02 05:04:08;;;;;;;1.70;1.60;;;15.60;99.90;;;;;;5109942;28;20542;-69
2022/09/02 05:06:38;;;;;;;6.27;2.10;;;15.60;99.90;;;;;;5108674;28;20230;-69
2022/09/02 05:09:07;;;;;;;4.83;2.20;;;15.60;99.90;;;;;;5110081;28;20254;-68
2022/09/02 05:11:35;;;;;;;2.23;2.03;;;15.60;99.90;;;;;;5110059;28;20237;-68
2022/09/02 05:14:05;;;;;;;4.33;1.83;;;15.60;99.90;;;;;;5110121;28;20221;-68
2022/09/02 05:16:36;;;;;;;2.77;2.10;;;15.60;99.90;;;;;;5109811;28;20200;-69
2022/09/02 05:19:04;;;;;;;2.47;2.13;;;15.60;99.90;;;;;;5092503;28;20909;-68
2022/09/02 05:21:31;;;;;;;4.10;1.73;;;15.70;99.90;;;;;;5105365;28;20206;-69
2022/09/02 05:23:59;;;;;;;2.83;1.90;;;15.80;99.90;;;;;;5109920;28;20214;-68
2022/09/02 05:26:26;;;;;;;2.57;1.87;;;15.70;99.90;;;;;;5110039;28;20202;-68
2022/09/02 05:28:53;;;;;;;3.47;2.00;;;15.80;99.90;;;;;;5109650;28;20198;-68
2022/09/02 05:31:20;;;;;;;3.27;2.00;;;15.80;99.90;;;;;;5109766;28;20580;-69
2022/09/02 05:33:48;;;;;;;5.57;2.20;;;15.80;99.90;;;;;;5109755;28;20293;-68
2022/09/02 05:36:19;;;;;;;8.00;2.63;;;15.90;99.90;;;;;;5109809;28;20209;-68
2022/09/02 05:38:46;;;;;;;4.47;2.40;;;15.90;99.90;;;;;;5104003;28;20199;-68
2022/09/02 05:41:18;;;;;;;3.30;2.27;;;15.90;99.90;;;;;;5089548;28;20212;-68
2022/09/02 05:43:47;;;;;;;5.03;2.40;;;15.90;99.90;;;;;;5089217;28;20199;-69
2022/09/02 05:46:17;;;;;;;3.40;2.13;;;15.90;99.90;;;;;;5089072;28;20211;-68
2022/09/02 05:51:33;;;;;;;5.07;1.87;;;16.00;99.90;;;;;;5084766;28;20280;-68
2022/09/02 05:54:00;;;;;;;4.20;1.90;;;16.10;99.90;;;;;;5096435;28;20206;-69
2022/09/02 05:56:29;;;;;;;3.83;1.90;;;16.10;99.90;;;;;;5109347;27;20209;-69
2022/09/02 05:58:57;;;;;;;2.10;2.00;;;16.10;99.90;;;;;;5103965;27;20213;-69
2022/09/02 06:01:25;;;;;;;2.97;1.90;;;16.10;99.90;;;;;;5088817;28;20211;-69
2022/09/02 06:03:51;;;;;;;2.40;2.17;;;16.20;99.90;;;;;;5088453;28;20744;-69
2022/09/02 06:06:22;;;;;;;2.03;1.43;;;16.20;99.90;;;;;;5091413;28;20226;-69
2022/09/02 06:08:50;;;;;;;3.63;1.73;;;16.20;99.90;;;;;;5108939;28;20732;-69
2022/09/02 06:11:18;;;;;;;2.70;2.17;;;16.30;99.90;;;;;;5108887;28;20218;-68
2022/09/02 06:13:47;;;;;;;2.63;1.80;;;16.20;99.90;;;;;;5108323;28;20198;-68
2022/09/02 06:16:16;;;;;;;1.90;1.70;;;16.20;99.90;;;;;;5108453;28;20202;-68
2022/09/02 06:18:43;;;;;;;1.73;1.63;;;16.30;99.90;;;;;;5108925;28;20340;-69
2022/09/02 06:21:10;;;;;;;1.83;1.63;;;16.30;99.90;;;;;;5108887;27;20297;-69
2022/09/02 06:23:38;;;;;;;4.67;2.00;;;16.40;99.90;;;;;;5108099;28;20212;-68
2022/09/02 06:26:10;;;;;;;2.93;2.27;;;16.40;99.90;;;;;;5088376;28;20211;-69
2022/09/02 06:28:37;;;;;;;4.67;2.10;;;16.40;99.90;;;;;;5088247;28;20199;-68
2022/09/02 06:31:09;;;;;;;5.43;2.27;;;16.40;99.90;;;;;;5087828;28;20211;-68
2022/09/02 06:33:37;;;;;;;2.10;1.90;;;16.40;99.90;;;;;;5088338;28;20210;-68
2022/09/02 06:36:07;;;;;;;5.73;2.27;;;16.50;99.90;;;;;;5088115;28;20297;-68
2022/09/02 06:38:37;;;;;;;8.40;2.43;;;16.50;99.90;;;;;;5088054;28;20268;-69
2022/09/02 06:41:07;;;;;;;1.87;1.60;;;16.50;99.90;;;;;;5088273;28;20724;-69
2022/09/02 06:43:34;;;;;;;3.10;2.10;;;16.60;99.90;;;;;;5087924;28;20213;-68
2022/09/02 06:46:01;;;;;;;3.73;2.10;;;16.60;99.90;;;;;;5087817;28;20214;-68
2022/09/02 06:48:30;;;;;;;2.27;1.87;;;16.60;99.90;;;;;;5087563;28;20214;-69
2022/09/02 06:50:56;;;;;;;7.77;2.23;;;16.70;99.90;;;;;;5087673;28;20217;-68
2022/09/02 06:53:23;;;;;;;3.53;2.30;;;16.70;99.90;;;;;;5089897;28;20239;-69
2022/09/02 06:55:51;;;;;;;3.97;2.17;;;16.70;99.90;;;;;;5107615;28;20652;-68
2022/09/02 06:58:18;;;;;;;4.87;2.30;;;16.70;99.90;;;;;;5107701;28;20229;-69
2022/09/02 07:00:45;;;;;;;3.10;2.23;;;16.80;99.90;;;;;;5108048;28;20234;-68
2022/09/02 07:06:08;;;;;;;4.57;2.43;;;16.90;99.90;;;;;;5107796;28;20229;-68
2022/09/02 07:08:35;;;;;;;9.77;2.20;;;16.90;99.90;;;;;;5108122;28;20603;-69
2022/09/02 07:11:05;;;;;;;6.53;2.53;;;17.00;99.90;;;;;;5107879;28;20206;-68
2022/09/02 07:13:32;;;;;;;4.70;2.20;;;17.00;99.90;;;;;;5108242;28;20190;-69
2022/09/02 07:15:59;;;;;;;5.27;1.80;;;17.10;99.90;;;;;;5107637;28;20210;-69
2022/09/02 07:18:26;;;;;;;5.03;2.30;;;17.20;99.90;;;;;;5107834;28;20322;-69
2022/09/02 07:20:54;;;;;;;3.67;1.97;;;17.20;99.90;;;;;;5107544;28;20210;-69
2022/09/02 07:23:22;;;;;;;3.37;1.80;;;17.20;99.90;;;;;;5108149;28;20209;-69
2022/09/02 07:25:49;;;;;;;5.87;2.10;;;17.20;99.90;;;;;;5107297;28;20206;-68
2022/09/02 07:28:16;;;;;;;4.43;1.87;;;17.30;99.90;;;;;;5108165;28;20210;-69
2022/09/02 07:30:43;;;;;;;3.63;1.90;;;17.30;99.90;;;;;;5107432;28;20567;-68
2022/09/02 07:33:12;;;;;;;3.27;1.83;;;17.40;99.90;;;;;;5107830;28;20580;-69
2022/09/02 07:35:40;;;;;;;4.73;1.90;;;17.50;99.90;;;;;;5108132;28;20217;-69
2022/09/02 07:38:08;;;;;;;2.10;1.90;;;17.60;99.90;;;;;;5107221;28;20616;-68
2022/09/02 07:40:36;;;;;;;7.50;2.30;;;17.70;99.90;;;;;;5087382;28;20606;-69
2022/09/02 07:43:04;;;;;;;5.10;2.30;;;17.80;99.90;;;;;;5087418;28;20207;-69
2022/09/02 07:45:31;;;;;;;2.17;1.97;;;17.90;99.90;;;;;;5087125;28;20241;-68
2022/09/02 07:47:59;;;;;;;3.63;1.87;;;17.90;99.90;;;;;;5087368;28;20210;-68
2022/09/02 07:50:27;;;;;;;4.17;1.87;;;18.00;99.90;;;;;;5087535;28;20209;-68
2022/09/02 07:52:55;;;;;;;4.23;1.90;;;18.00;99.90;;;;;;5104510;28;20233;-68
2022/09/02 07:55:22;;;;;;;2.23;2.07;;;18.00;99.90;;;;;;5088579;28;20217;-68
2022/09/02 07:57:53;;;;;;;5.03;1.70;;;18.00;99.90;;;;;;5087055;28;20222;-66
2022/09/02 08:00:21;;;;;;;6.87;2.23;;;18.10;99.90;;;;;;5102784;28;20241;-68
2022/09/02 08:02:49;;;;;;;2.50;1.87;;;18.10;99.90;;;;;;5107392;28;20206;-69
2022/09/02 08:05:16;;;;;;;4.13;2.20;;;18.20;99.90;;;;;;5107630;28;20227;-68
2022/09/02 08:07:43;;;;;;;2.10;1.90;;;18.20;99.90;;;;;;5091235;28;20305;-68
2022/09/02 08:10:11;;;;;;;2.43;1.80;;;18.30;99.90;;;;;;5086863;28;20297;-68
2022/09/02 08:12:39;;;;;;;2.30;2.00;;;18.30;99.90;;;;;;5086876;28;20243;-69
2022/09/02 08:15:09;;;;;;;2.77;1.63;;;18.30;99.90;;;;;;5086755;28;20222;-69
2022/09/02 08:17:36;;;;;;;3.37;1.70;;;18.40;99.90;;;;;;5099391;28;20226;-68
2022/09/02 08:20:03;;;;;;;6.67;2.20;;;18.50;99.90;;;;;;5106886;28;20203;-68
2022/09/02 08:22:33;;;;;;;2.23;2.00;;;18.60;99.90;;;;;;5107352;28;20206;-68
2022/09/02 08:24:59;;;;;;;6.40;2.20;;;18.60;99.90;;;;;;5107405;28;20205;-68
2022/09/02 08:27:26;;;;;;;5.47;1.93;;;18.70;99.90;;;;;;5107394;28;20202;-68
2022/09/02 08:29:53;;;;;;;6.30;2.30;;;18.80;99.90;;;;;;5107040;28;20217;-68
2022/09/02 08:32:21;;;;;;;2.40;1.53;;;18.90;99.90;;;;;;5106313;28;20703;-68
2022/09/02 08:34:48;;;;;;;2.50;1.63;;;18.90;99.90;;;;;;5106841;28;20735;-68
2022/09/02 08:37:15;;;;;;;2.77;1.60;;;19.00;99.90;;;;;;5110680;27;20203;-68
2022/09/02 08:39:42;;;;;;;10.80;2.10;;;19.00;99.90;;;;;;5096884;28;20210;-68
2022/09/02 08:42:18;;;;;;;7.47;2.10;;;19.00;99.90;;;;;;5089972;28;20944;-68
2022/09/02 08:44:46;;;;;;;5.17;1.80;;;19.00;99.90;;;;;;5090409;28;20191;-68
2022/09/02 08:47:17;;;;;;;2.00;1.10;;;19.10;99.90;;;;;;5091263;28;20199;-68
2022/09/02 08:49:48;;;;;;;5.23;1.90;;;19.10;99.90;;;;;;5110477;27;20205;-68
2022/09/02 08:52:24;;;;;;;3.00;1.73;;;19.20;99.90;;;;;;5110356;28;20233;-68
2022/09/02 08:54:54;;;;;;;2.00;1.40;;;19.30;99.90;;;;;;5096741;28;20214;-68
2022/09/02 08:57:25;;;;;;;2.30;1.77;;;19.40;99.90;;;;;;5110500;28;20230;-68
2022/09/02 08:59:52;;;;;;;2.40;1.10;;;19.40;99.90;;;;;;5110392;28;20195;-68
2022/09/02 09:02:26;;;;;;;2.17;1.27;;;19.50;99.90;;;;;;5109908;27;20213;-68
2022/09/02 09:05:15;;;;;;;2.50;1.17;;;19.60;99.90;;;;;;5110201;28;20228;-68
2022/09/02 09:07:55;;;;;;;3.80;1.53;;;19.60;99.90;;;;;;5110467;28;20200;-68
2022/09/02 09:10:28;;;;;;;3.87;1.00;;;19.60;99.90;;;;;;5110365;28;20195;-68
2022/09/02 09:13:15;;;;;;;2.40;1.23;;;19.70;99.90;;;;;;5109913;28;20198;-68
2022/09/02 09:15:49;;;;;;;1.10;1.00;;;19.80;99.90;;;;;;5109578;28;20220;-68
2022/09/02 09:18:20;;;;;;;3.17;1.20;;;19.80;99.90;;;;;;5109934;28;20225;-68
2022/09/02 09:20:48;;;;;;;1.33;0.90;;;20.00;99.90;;;;;;5110269;28;20199;-68
2022/09/02 09:23:25;;;;;;;3.23;1.00;;;20.10;99.90;;;;;;5110140;28;20785;-68
2022/09/02 09:25:56;;;;;;;4.03;1.20;;;20.20;99.90;;;;;;5109672;28;20564;-68
2022/09/02 09:28:23;;;;;;;1.27;1.10;;;20.30;99.90;;;;;;5110017;28;20194;-68
2022/09/02 09:30:50;;;;;;;6.20;1.30;;;20.30;99.90;;;;;;5109207;28;20198;-69
2022/09/02 09:33:21;;;;;;;1.10;1.00;;;20.40;99.90;;;;;;5110068;28;20603;-69
2022/09/02 09:35:51;;;;;;;1.10;0.70;;;20.50;99.90;;;;;;5109737;28;21022;-68
2022/09/02 09:38:29;;;;;;;0.60;0.60;;;20.50;99.90;;;;;;5107296;28;20217;-69
2022/09/02 09:41:20;;;;;;;0.70;0.67;;;20.60;99.90;;;;;;5089461;28;20247;-68
2022/09/02 09:43:47;;;;;;;5.40;1.50;;;20.60;99.90;;;;;;5093091;28;20209;-68
2022/09/02 09:46:26;;;;;;;1.63;1.00;;;20.60;99.90;;;;;;5109178;28;20202;-68
2022/09/02 09:48:53;;;;;;;1.25;1.00;;;20.50;99.90;;;;;;5108865;28;20194;-68
2022/09/02 09:51:21;;;;;;;1.38;1.23;;;20.60;99.90;;;;;;5109002;28;20242;-68
2022/09/02 09:53:48;;;;;;;1.80;1.20;;;20.60;99.90;;;;;;5109515;28;20202;-68
2022/09/02 09:56:29;;;;;;;2.15;0.90;;;20.60;99.90;;;;;;5109297;28;20198;-68
2022/09/02 09:58:56;;;;;;;0.98;0.82;;;20.60;99.90;;;;;;5109296;28;20214;-68
2022/09/02 10:01:25;;;;;;;1.23;1.10;;;20.60;99.90;;;;;;5109121;28;20202;-68
2022/09/02 10:03:55;;;;;;;3.60;1.23;;;20.70;99.90;;;;;;5109132;28;20191;-68
2022/09/02 10:06:35;;;;;;;2.60;0.90;;;20.70;99.90;;;;;;5109062;28;20226;-68
2022/09/02 10:09:05;;;;;;;1.15;0.98;;;20.70;99.90;;;;;;5108724;28;20204;-68
2022/09/02 10:11:33;;;;;;;2.40;0.90;;;20.60;99.90;;;;;;5108708;28;20221;-68
2022/09/02 10:14:02;;;;;;;3.20;0.80;;;20.50;99.90;;;;;;5109048;28;20209;-68
2022/09/02 10:16:41;;;;;;;3.22;0.93;;;20.50;99.90;;;;;;5108673;28;20202;-68
2022/09/02 10:19:16;;;;;;;1.50;0.87;;;20.50;99.90;;;;;;5108446;28;20229;-68
2022/09/02 10:22:13;;;;;;;0.90;0.80;;;20.50;99.90;;;;;;5108772;28;20197;-68
2022/09/02 10:24:54;;;;;;;0.65;0.65;;;20.50;99.90;;;;;;5108669;28;20570;-68
2022/09/02 10:27:31;;;;;;;42.00;4.53;;;20.50;99.90;;;;;;5108884;28;20190;-68
2022/09/02 10:30:04;;;;;;;3.60;1.00;;;20.70;99.90;;;;;;5108826;28;20626;-69
2022/09/02 10:33:02;;;;;;;0.70;0.70;;;20.90;99.90;;;;;;5108466;28;20190;-69
2022/09/02 10:35:38;;;;;;;1.55;0.73;;;21.20;99.90;;;;;;5108637;28;20191;-69
2022/09/02 10:38:15;;;;;;;2.20;0.60;;;21.30;99.10;;;;;;5108226;28;20197;-68
2022/09/02 10:40:49;;;;;;;1.58;0.85;;;21.60;99.00;;;;;;5097679;28;20211;-68
2022/09/02 10:43:29;;;;;;;1.95;0.93;;;21.90;99.90;;;;;;5108486;28;20335;-68
2022/09/02 10:46:00;;;;;;;0.85;0.80;;;22.10;99.60;;;;;;5108206;28;20261;-68
2022/09/02 10:48:41;;;;;;;7.30;1.63;;;22.10;99.50;;;;;;5098101;28;20203;-68
2022/09/02 10:51:16;;;;;;;1.63;0.95;;;22.00;99.40;;;;;;5088366;28;20657;-68
2022/09/02 10:53:58;;;;;;;2.22;0.93;;;21.90;99.20;;;;;;5093147;28;20288;-67
2022/09/02 10:56:29;;;;;;;1.02;0.80;;;21.80;99.20;;;;;;5108338;28;20570;-68
2022/09/02 10:59:02;;;;;;;2.58;0.73;;;21.60;99.20;;;;;;5090766;28;20213;-68
2022/09/02 11:01:32;;;;;;;8.50;1.60;;;21.50;99.10;;;;;;5106325;28;20194;-68
2022/09/02 11:04:07;;;;;;;2.67;1.00;;;21.40;99.10;;;;;;5106135;28;20194;-68
2022/09/02 11:06:39;;;;;;;1.25;0.98;;;21.30;99.30;;;;;;5091445;28;20759;-68
2022/09/02 11:09:12;;;;;;;0.80;0.80;;;21.30;99.50;;;;;;5085978;28;20276;-68
2022/09/02 11:11:42;;;;;;;2.17;0.85;;;21.30;99.60;;;;;;5085429;28;20195;-68
2022/09/02 11:14:17;;;;;;;4.63;1.00;;;21.40;99.40;;;;;;5085527;28;20668;-68
2022/09/02 11:16:50;;;;;;;1.58;1.05;;;21.40;99.40;;;;;;5088218;28;20658;-68
2022/09/02 11:19:22;;;;;;;2.65;0.98;;;21.50;99.60;;;;;;5105092;28;20719;-68
2022/09/02 11:21:55;;;;;;;2.92;1.25;;;21.60;99.40;;;;;;5089431;28;20555;-68
2022/09/02 11:24:30;;;;;;;1.17;1.00;;;21.70;99.00;;;;;;5088005;28;20203;-68
2022/09/02 11:27:04;;;;;;;2.25;1.05;;;21.70;99.20;;;;;;5087898;28;20191;-69
2022/09/02 11:29:38;;;;;;;1.20;1.10;;;21.60;98.90;;;;;;5087836;28;20231;-68
2022/09/02 11:32:15;;;;;;;2.92;1.05;;;21.60;98.90;;;;;;5086742;28;20532;-68
2022/09/02 11:34:46;;;;;;;3.22;0.90;;;21.70;98.90;;;;;;5087917;28;20191;-68
2022/09/02 11:37:25;;;;;;;1.10;0.82;;;21.90;98.20;;;;;;5099594;28;20198;-68
2022/09/02 11:39:57;;;;;;;0.90;0.73;;;22.20;97.50;;;;;;5092590;28;20218;-68
2022/09/02 11:42:47;;;;;;;1.23;1.20;;;22.60;97.10;;;;;;5088241;28;20197;-68
2022/09/02 11:45:38;;;;;;;2.08;0.63;;;22.70;96.80;;;;;;5100329;28;20286;-68
2022/09/02 11:48:47;;;;;;;1.55;0.93;;;22.90;96.40;;;;;;5107980;28;20210;-68
2022/09/02 11:51:45;;;;;;;2.50;0.60;;;23.20;96.70;;;;;;5107673;28;20201;-68
2022/09/02 11:54:15;;;;;;;1.45;0.88;;;23.40;95.10;;;;;;5107375;28;20260;-68
2022/09/02 11:56:47;;;;;;;1.00;0.88;;;23.80;95.90;;;;;;5087415;28;20206;-68
2022/09/02 11:59:20;;;;;;;1.05;1.00;;;24.00;95.20;;;;;;5087240;28;20221;-68
2022/09/02 12:01:50;;;;;;;1.48;0.90;;;24.00;95.00;;;;;;5093030;28;20197;-69
2022/09/02 12:04:24;;;;;;;1.42;1.05;;;23.80;94.70;;;;;;5088491;28;20239;-68
2022/09/02 12:07:25;;;;;;;2.10;0.73;;;23.60;94.70;;;;;;5086756;28;20286;-68
2022/09/02 12:09:53;;;;;;;0.90;0.70;;;23.40;94.40;;;;;;5099854;28;20189;-68
2022/09/02 12:13:03;;;;;;;4.43;0.90;;;23.20;94.20;;;;;;5090661;28;20210;-68
2022/09/02 12:15:31;;;;;;;0.70;0.70;;;23.10;94.30;;;;;;5090546;28;20576;-68
2022/09/02 12:18:27;;;;;;;1.10;1.00;;;22.90;94.60;;;;;;5090278;28;20260;-68
2022/09/02 12:21:13;;;;;;;1.83;0.80;;;22.80;95.10;;;;;;5101562;28;20210;-69
2022/09/02 12:24:09;;;;;;;1.00;0.73;;;22.70;95.20;;;;;;5111228;28;20198;-69
2022/09/02 12:27:05;;;;;;;1.38;0.98;;;22.60;95.60;;;;;;5111153;28;20596;-69
2022/09/02 12:29:34;;;;;;;12.82;1.85;;;22.60;96.40;;;;;;5090783;28;20215;-69
2022/09/02 12:32:01;;;;;;;3.70;1.00;;;22.60;96.40;;;;;;5090037;28;20207;-69
2022/09/02 12:35:06;;;;;;;5.68;0.80;;;22.60;95.70;;;;;;5095990;28;20213;-69
2022/09/02 12:37:54;;;;;;;2.30;0.82;;;22.70;94.40;;;;;;5110988;28;20205;-70
2022/09/02 12:40:32;;;;;;;1.70;0.98;;;23.00;94.90;;;;;;5096833;28;20229;-69
2022/09/02 12:43:02;;;;;;;5.28;0.93;;;23.30;95.10;;;;;;5110578;28;20194;-69
2022/09/02 12:45:32;;;;;;;0.88;0.85;;;23.40;93.90;;;;;;5110419;28;20194;-69
2022/09/02 12:48:06;;;;;;;2.10;1.10;;;23.60;93.40;;;;;;5110555;28;20326;-70
2022/09/02 12:50:52;;;;;;;2.40;0.90;;;23.50;93.70;;;;;;5103241;28;20206;-69
2022/09/02 12:53:32;;;;;;;1.42;0.85;;;23.30;93.80;;;;;;5110465;28;20262;-69
2022/09/02 12:56:02;;;;;;;1.30;1.17;;;23.20;94.30;;;;;;5096876;28;20193;-69
2022/09/02 12:58:34;;;;;;;11.50;1.50;;;23.10;94.60;;;;;;5099966;28;20656;-69
2022/09/02 13:01:12;;;;;;;0.88;0.88;;;23.10;94.90;;;;;;5110254;28;20238;-69
2022/09/02 13:04:10;;;;;;;1.20;1.10;;;23.00;94.90;;;;;;5110749;28;20194;-67
2022/09/02 13:06:56;;;;;;;1.63;0.90;;;23.20;95.40;;;;;;5108581;28;20191;-68
2022/09/02 13:09:45;;;;;;;6.70;1.17;;;23.60;94.60;;;;;;5109826;28;20247;-68